createdAt,value
2023-11-24T00:00:55.421Z,803.00
2023-11-24T00:01:55.485Z,794.00
2023-11-24T00:02:55.444Z,795.00
2023-11-24T00:03:55.533Z,774.00
2023-11-24T00:04:56.483Z,755.00
2023-11-24T00:05:55.532Z,756.00
2023-11-24T00:06:55.584Z,779.00
2023-11-24T00:07:55.498Z,812.00
2023-11-24T00:08:55.481Z,825.00
2023-11-24T00:09:55.486Z,835.00
2023-11-24T00:10:55.460Z,837.00
2023-11-24T00:12:05.538Z,842.00
2023-11-24T00:12:55.513Z,844.00
2023-11-24T00:13:55.450Z,845.00
2023-11-24T00:14:55.432Z,826.00
2023-11-24T00:15:55.552Z,862.00
2023-11-24T00:16:55.505Z,888.00
2023-11-24T00:17:58.080Z,868.00
2023-11-24T00:18:55.446Z,868.00
2023-11-24T00:19:55.385Z,870.00
2023-11-24T00:20:55.377Z,858.00
2023-11-24T00:21:55.419Z,866.00
2023-11-24T00:22:55.444Z,852.00
2023-11-24T00:23:55.377Z,832.00
2023-11-24T00:24:55.418Z,826.00
2023-11-24T00:25:55.325Z,832.00
2023-11-24T00:26:55.373Z,840.00
2023-11-24T00:27:55.346Z,852.00
2023-11-24T00:28:55.316Z,845.00
2023-11-24T00:29:55.297Z,837.00
2023-11-24T00:30:55.335Z,817.00
2023-11-24T00:31:55.294Z,820.00
2023-11-24T00:32:55.324Z,838.00
2023-11-24T00:33:55.378Z,848.00
2023-11-24T00:34:55.262Z,879.00
2023-11-24T00:35:55.247Z,897.00
2023-11-24T00:36:55.255Z,924.00
2023-11-24T00:37:55.243Z,954.00
2023-11-24T00:38:55.208Z,948.00
2023-11-24T00:39:55.216Z,935.00
2023-11-24T00:40:55.198Z,921.00
2023-11-24T00:41:55.212Z,899.00
2023-11-24T00:42:55.234Z,880.00
2023-11-24T00:43:55.184Z,869.00
2023-11-24T00:44:55.177Z,843.00
2023-11-24T00:45:55.298Z,818.00
2023-11-24T00:46:55.218Z,823.00
2023-11-24T00:47:55.148Z,821.00
2023-11-24T00:48:55.213Z,825.00
2023-11-24T00:49:55.114Z,832.00
2023-11-24T00:50:55.126Z,837.00
2023-11-24T00:51:55.219Z,843.00
2023-11-24T00:52:58.913Z,831.00
2023-11-24T00:53:55.091Z,832.00
2023-11-24T00:54:55.147Z,834.00
2023-11-24T00:55:55.065Z,834.00
2023-11-24T00:56:55.069Z,828.00
2023-11-24T00:57:55.071Z,802.00
2023-11-24T00:58:55.074Z,789.00
2023-11-24T00:59:55.049Z,794.00
2023-11-24T01:00:55.059Z,779.00
2023-11-24T01:01:55.049Z,769.00
2023-11-24T01:02:55.142Z,747.00
2023-11-24T01:03:55.105Z,761.00
2023-11-24T01:04:55.086Z,754.00
2023-11-24T01:05:55.024Z,743.00
2023-11-24T01:06:54.998Z,741.00
2023-11-24T01:07:54.968Z,744.00
2023-11-24T01:08:54.977Z,777.00
2023-11-24T01:09:55.070Z,789.00
2023-11-24T01:10:54.951Z,787.00
2023-11-24T01:11:54.925Z,793.00
2023-11-24T01:12:54.985Z,798.00
2023-11-24T01:13:54.908Z,805.00
2023-11-24T01:14:54.919Z,829.00
2023-11-24T01:15:54.914Z,835.00
2023-11-24T01:16:54.915Z,848.00
2023-11-24T01:17:54.882Z,885.00
2023-11-24T01:18:54.892Z,907.00
2023-11-24T01:19:54.844Z,934.00
2023-11-24T01:20:54.863Z,954.00
2023-11-24T01:21:54.883Z,1003.00
2023-11-24T01:22:54.831Z,1023.00
2023-11-24T01:23:54.835Z,1077.00
2023-11-24T01:24:54.892Z,1156.00
2023-11-24T01:25:54.815Z,1227.00
2023-11-24T01:26:54.794Z,1245.00
2023-11-24T01:27:54.857Z,1214.00
2023-11-24T01:28:54.820Z,1183.00
2023-11-24T01:29:54.778Z,1135.00
2023-11-24T01:30:57.876Z,1122.00
2023-11-24T01:31:54.759Z,1122.00
2023-11-24T01:32:54.764Z,1110.00
2023-11-24T01:33:54.818Z,1112.00
2023-11-24T01:34:54.752Z,1100.00
2023-11-24T01:35:54.725Z,1091.00
2023-11-24T01:36:54.821Z,1066.00
2023-11-24T01:37:54.731Z,1054.00
2023-11-24T01:38:54.713Z,1053.00
2023-11-24T01:39:54.740Z,1057.00
2023-11-24T01:40:54.696Z,1049.00
2023-11-24T01:41:54.683Z,1067.00
2023-11-24T01:42:54.693Z,1068.00
2023-11-24T01:43:54.681Z,1080.00
2023-11-24T01:44:54.648Z,1087.00
2023-11-24T01:45:54.705Z,1080.00
2023-11-24T01:46:54.644Z,1065.00
2023-11-24T01:47:54.620Z,1061.00
2023-11-24T01:48:54.616Z,1074.00
2023-11-24T01:49:54.618Z,1070.00
2023-11-24T01:50:54.622Z,1083.00
2023-11-24T01:51:54.618Z,1099.00
2023-11-24T01:52:54.673Z,1125.00
2023-11-24T01:53:54.564Z,1144.00
2023-11-24T01:54:54.578Z,1149.00
2023-11-24T01:55:54.574Z,1159.00
2023-11-24T01:56:54.546Z,1170.00
2023-11-24T01:57:54.553Z,1184.00
2023-11-24T01:58:54.548Z,1170.00
2023-11-24T01:59:54.510Z,1175.00
2023-11-24T02:00:54.507Z,1187.00
2023-11-24T02:01:54.530Z,1214.00
2023-11-24T02:02:54.546Z,1235.00
2023-11-24T02:03:54.561Z,1250.00
2023-11-24T02:04:54.506Z,1268.00
2023-11-24T02:05:54.449Z,1308.00
2023-11-24T02:06:54.506Z,1363.00
2023-11-24T02:07:54.461Z,1378.00
2023-11-24T02:08:54.447Z,1414.00
2023-11-24T02:10:04.648Z,1434.00
2023-11-24T02:10:54.420Z,1436.00
2023-11-24T02:11:54.392Z,1438.00
2023-11-24T02:12:54.489Z,1432.00
2023-11-24T02:13:54.387Z,1424.00
2023-11-24T02:14:54.382Z,1431.00
2023-11-24T02:15:57.362Z,1443.00
2023-11-24T02:16:54.398Z,1444.00
2023-11-24T02:17:54.404Z,1434.00
2023-11-24T02:18:54.380Z,1397.00
2023-11-24T02:19:54.381Z,1377.00
2023-11-24T02:20:54.342Z,1353.00
2023-11-24T02:21:54.331Z,1327.00
2023-11-24T02:22:54.337Z,1310.00
2023-11-24T02:23:54.318Z,1344.00
2023-11-24T02:24:54.326Z,1356.00
2023-11-24T02:25:54.285Z,1347.00
2023-11-24T02:26:54.291Z,1337.00
2023-11-24T02:27:54.292Z,1318.00
2023-11-24T02:28:54.270Z,1310.00
2023-11-24T02:29:54.272Z,1299.00
2023-11-24T02:30:54.387Z,1287.00
2023-11-24T02:31:54.219Z,1291.00
2023-11-24T02:32:54.276Z,1294.00
2023-11-24T02:33:54.265Z,1289.00
2023-11-24T02:34:54.244Z,1291.00
2023-11-24T02:35:54.201Z,1289.00
2023-11-24T02:36:54.220Z,1293.00
2023-11-24T02:37:54.169Z,1273.00
2023-11-24T02:38:54.181Z,1277.00
2023-11-24T02:39:54.181Z,1255.00
2023-11-24T02:40:54.152Z,1262.00
2023-11-24T02:41:54.157Z,1265.00
2023-11-24T02:42:54.140Z,1270.00
2023-11-24T02:43:54.220Z,1277.00
2023-11-24T02:44:54.142Z,1295.00
2023-11-24T02:45:54.140Z,1298.00
2023-11-24T02:46:54.102Z,1301.00
2023-11-24T02:47:54.128Z,1323.00
2023-11-24T02:48:54.309Z,1307.00
2023-11-24T02:49:54.068Z,1333.00
2023-11-24T02:51:15.117Z,1333.00
2023-11-24T02:51:54.057Z,1336.00
2023-11-24T02:52:54.049Z,1344.00
2023-11-24T02:53:54.041Z,1351.00
2023-11-24T02:54:54.147Z,1350.00
2023-11-24T02:55:54.022Z,1347.00
2023-11-24T02:56:54.017Z,1311.00
2023-11-24T02:57:54.010Z,1308.00
2023-11-24T02:58:54.022Z,1272.00
2023-11-24T02:59:53.999Z,1271.00
2023-11-24T03:00:54.017Z,1278.00
2023-11-24T03:01:54.053Z,1283.00
2023-11-24T03:02:53.964Z,1282.00
2023-11-24T03:03:54.025Z,1290.00
2023-11-24T03:04:53.972Z,1276.00
2023-11-24T03:05:53.941Z,1279.00
2023-11-24T03:06:53.981Z,1256.00
2023-11-24T03:07:53.929Z,1249.00
2023-11-24T03:08:53.925Z,1249.00
2023-11-24T03:09:53.911Z,1243.00
2023-11-24T03:10:53.892Z,1245.00
2023-11-24T03:11:58.942Z,1210.00
2023-11-24T03:12:53.933Z,1211.00
2023-11-24T03:13:53.860Z,1214.00
2023-11-24T03:14:53.879Z,1220.00
2023-11-24T03:15:53.892Z,1213.00
2023-11-24T03:16:53.886Z,1194.00
2023-11-24T03:17:53.870Z,1184.00
2023-11-24T03:18:53.862Z,1162.00
2023-11-24T03:19:53.809Z,1153.00
2023-11-24T03:20:53.802Z,1156.00
2023-11-24T03:21:53.840Z,1161.00
2023-11-24T03:22:53.792Z,1166.00
2023-11-24T03:23:53.767Z,1168.00
2023-11-24T03:24:53.785Z,1184.00
2023-11-24T03:25:53.784Z,1173.00
2023-11-24T03:26:53.846Z,1169.00
2023-11-24T03:27:53.921Z,1177.00
2023-11-24T03:28:53.937Z,1165.00
2023-11-24T03:29:54.042Z,1165.00
2023-11-24T03:30:54.102Z,1180.00
2023-11-24T03:31:54.085Z,1206.00
2023-11-24T03:32:54.145Z,1219.00
2023-11-24T03:33:54.222Z,1240.00
2023-11-24T03:34:54.245Z,1234.00
2023-11-24T03:35:54.283Z,1229.00
2023-11-24T03:36:54.347Z,1200.00
2023-11-24T03:37:54.393Z,1171.00
2023-11-24T03:38:54.443Z,1144.00
2023-11-24T03:39:54.563Z,1130.00
2023-11-24T03:40:54.531Z,1138.00
2023-11-24T03:41:54.575Z,1115.00
2023-11-24T03:42:54.735Z,1119.00
2023-11-24T03:43:54.701Z,1124.00
2023-11-24T03:44:54.756Z,1133.00
2023-11-24T03:45:54.812Z,1134.00
2023-11-24T03:46:54.857Z,1166.00
2023-11-24T03:47:54.901Z,1185.00
2023-11-24T03:48:54.990Z,1222.00
2023-11-24T03:49:54.980Z,1224.00
2023-11-24T03:50:55.058Z,1208.00
2023-11-24T03:51:55.142Z,1200.00
2023-11-24T03:52:55.210Z,1210.00
2023-11-24T03:53:55.198Z,1213.00
2023-11-24T03:54:55.289Z,1228.00
2023-11-24T03:55:55.282Z,1214.00
2023-11-24T03:56:55.341Z,1199.00
2023-11-24T03:57:55.428Z,1189.00
2023-11-24T03:58:55.459Z,1184.00
2023-11-24T03:59:55.480Z,1175.00
2023-11-24T04:00:55.642Z,1169.00
2023-11-24T04:01:55.677Z,1155.00
2023-11-24T04:02:55.641Z,1145.00
2023-11-24T04:03:55.834Z,1158.00
2023-11-24T04:04:55.756Z,1154.00
2023-11-24T04:05:55.794Z,1136.00
2023-11-24T04:06:55.868Z,1128.00
2023-11-24T04:07:55.885Z,1159.00
2023-11-24T04:09:01.012Z,1188.00
2023-11-24T04:09:55.974Z,1190.00
2023-11-24T04:10:58.965Z,1194.00
2023-11-24T04:11:55.941Z,1197.00
2023-11-24T04:12:55.926Z,1194.00
2023-11-24T04:13:55.898Z,1206.00
2023-11-24T04:14:55.893Z,1236.00
2023-11-24T04:15:55.956Z,1245.00
2023-11-24T04:16:56.992Z,1263.00
2023-11-24T04:17:55.984Z,1263.00
2023-11-24T04:18:55.891Z,1264.00
2023-11-24T04:19:55.873Z,1272.00
2023-11-24T04:20:55.835Z,1289.00
2023-11-24T04:21:55.864Z,1288.00
2023-11-24T04:22:55.824Z,1285.00
2023-11-24T04:23:55.827Z,1269.00
2023-11-24T04:24:55.841Z,1245.00
2023-11-24T04:25:55.810Z,1252.00
2023-11-24T04:26:55.789Z,1246.00
2023-11-24T04:27:55.808Z,1248.00
2023-11-24T04:28:55.745Z,1255.00
2023-11-24T04:29:55.756Z,1229.00
2023-11-24T04:30:55.794Z,1229.00
2023-11-24T04:31:55.739Z,1220.00
2023-11-24T04:32:55.785Z,1208.00
2023-11-24T04:33:55.800Z,1198.00
2023-11-24T04:34:55.714Z,1181.00
2023-11-24T04:35:55.708Z,1165.00
2023-11-24T04:36:55.754Z,1164.00
2023-11-24T04:37:55.702Z,1177.00
2023-11-24T04:38:55.694Z,1180.00
2023-11-24T04:39:55.724Z,1170.00
2023-11-24T04:40:55.675Z,1171.00
2023-11-24T04:41:55.708Z,1193.00
2023-11-24T04:42:55.663Z,1220.00
2023-11-24T04:43:55.635Z,1219.00
2023-11-24T04:44:55.618Z,1216.00
2023-11-24T04:45:55.708Z,1193.00
2023-11-24T04:46:55.616Z,1181.00
2023-11-24T04:47:55.661Z,1184.00
2023-11-24T04:48:55.586Z,1178.00
2023-11-24T04:49:55.611Z,1185.00
2023-11-24T04:50:55.574Z,1164.00
2023-11-24T04:51:55.581Z,1144.00
2023-11-24T04:52:55.547Z,1137.00
2023-11-24T04:53:55.580Z,1129.00
2023-11-24T04:54:55.576Z,1134.00
2023-11-24T04:55:55.539Z,1141.00
2023-11-24T04:56:55.526Z,1135.00
2023-11-24T04:57:55.544Z,1143.00
2023-11-24T04:58:55.492Z,1154.00
2023-11-24T04:59:55.491Z,1163.00
2023-11-24T05:00:55.532Z,1174.00
2023-11-24T05:01:55.592Z,1181.00
2023-11-24T05:02:55.470Z,1178.00
2023-11-24T05:03:55.550Z,1179.00
2023-11-24T05:04:55.446Z,1171.00
2023-11-24T05:05:55.445Z,1159.00
2023-11-24T05:06:55.456Z,1159.00
2023-11-24T05:07:55.423Z,1159.00
2023-11-24T05:08:55.400Z,1144.00
2023-11-24T05:09:55.417Z,1125.00
2023-11-24T05:10:55.388Z,1155.00
2023-11-24T05:11:55.395Z,1171.00
2023-11-24T05:12:55.373Z,1181.00
2023-11-24T05:13:55.396Z,1166.00
2023-11-24T05:14:57.641Z,1189.00
2023-11-24T05:15:55.424Z,1237.00
2023-11-24T05:16:55.372Z,1286.00
2023-11-24T05:17:55.470Z,1311.00
2023-11-24T05:18:55.358Z,1321.00
2023-11-24T05:19:55.333Z,1326.00
2023-11-24T05:20:55.285Z,1330.00
2023-11-24T05:21:55.355Z,1317.00
2023-11-24T05:22:55.286Z,1295.00
2023-11-24T05:23:55.371Z,1280.00
2023-11-24T05:24:55.306Z,1245.00
2023-11-24T05:25:55.265Z,1225.00
2023-11-24T05:27:00.289Z,1217.00
2023-11-24T05:27:55.287Z,1219.00
2023-11-24T05:28:55.244Z,1222.00
2023-11-24T05:29:55.232Z,1225.00
2023-11-24T05:30:55.251Z,1231.00
2023-11-24T05:31:55.252Z,1208.00
2023-11-24T05:32:55.279Z,1211.00
2023-11-24T05:33:55.277Z,1184.00
2023-11-24T05:34:55.202Z,1167.00
2023-11-24T05:35:55.173Z,1134.00
2023-11-24T05:36:55.207Z,1119.00
2023-11-24T05:37:55.168Z,1106.00
2023-11-24T05:38:55.135Z,1104.00
2023-11-24T05:39:55.219Z,1101.00
2023-11-24T05:40:55.119Z,1088.00
2023-11-24T05:41:55.120Z,1052.00
2023-11-24T05:42:56.734Z,1043.00
2023-11-24T05:43:55.115Z,1043.00
2023-11-24T05:44:55.085Z,1049.00
2023-11-24T05:45:55.184Z,1053.00
2023-11-24T05:46:55.154Z,1076.00
2023-11-24T05:47:55.084Z,1064.00
2023-11-24T05:48:55.136Z,1078.00
2023-11-24T05:49:55.051Z,1060.00
2023-11-24T05:50:55.056Z,1057.00
2023-11-24T05:51:55.161Z,1071.00
2023-11-24T05:52:55.169Z,1104.00
2023-11-24T05:53:55.212Z,1116.00
2023-11-24T05:54:55.397Z,1127.00
2023-11-24T05:55:55.300Z,1119.00
2023-11-24T05:56:55.371Z,1106.00
2023-11-24T05:57:55.438Z,1084.00
2023-11-24T05:58:55.459Z,1066.00
2023-11-24T05:59:55.521Z,1070.00
2023-11-24T06:00:55.641Z,1080.00
2023-11-24T06:01:55.668Z,1087.00
2023-11-24T06:02:55.664Z,1087.00
2023-11-24T06:03:55.806Z,1081.00
2023-11-24T06:04:55.996Z,1084.00
2023-11-24T06:05:55.805Z,1096.00
2023-11-24T06:06:55.868Z,1114.00
2023-11-24T06:07:57.474Z,1119.00
2023-11-24T06:08:55.904Z,1098.00
2023-11-24T06:09:55.932Z,1100.00
2023-11-24T06:10:55.919Z,1084.00
2023-11-24T06:11:55.889Z,1089.00
2023-11-24T06:12:55.883Z,1100.00
2023-11-24T06:13:55.878Z,1124.00
2023-11-24T06:14:56.009Z,1140.00
2023-11-24T06:15:56.048Z,1137.00
2023-11-24T06:16:56.078Z,1137.00
2023-11-24T06:17:56.116Z,1129.00
2023-11-24T06:18:57.727Z,1140.00
2023-11-24T06:19:56.329Z,1132.00
2023-11-24T06:20:56.396Z,1120.00
2023-11-24T06:21:56.317Z,1105.00
2023-11-24T06:22:56.309Z,1080.00
2023-11-24T06:23:56.328Z,1068.00
2023-11-24T06:24:56.323Z,1056.00
2023-11-24T06:25:56.268Z,1051.00
2023-11-24T06:26:56.260Z,1056.00
2023-11-24T06:27:56.445Z,1040.00
2023-11-24T06:28:56.391Z,1040.00
2023-11-24T06:29:56.473Z,1032.00
2023-11-24T06:30:56.510Z,1039.00
2023-11-24T06:31:56.521Z,1066.00
2023-11-24T06:32:56.592Z,1083.00
2023-11-24T06:33:56.708Z,1135.00
2023-11-24T06:34:56.676Z,1183.00
2023-11-24T06:35:56.790Z,1239.00
2023-11-24T06:36:56.862Z,1270.00
2023-11-24T06:37:56.917Z,1295.00
2023-11-24T06:38:56.920Z,1302.00
2023-11-24T06:39:57.054Z,1331.00
2023-11-24T06:40:56.963Z,1358.00
2023-11-24T06:41:57.015Z,1370.00
2023-11-24T06:42:57.132Z,1370.00
2023-11-24T06:43:57.200Z,1396.00
2023-11-24T06:44:57.178Z,1382.00
2023-11-24T06:45:57.305Z,1375.00
2023-11-24T06:46:57.281Z,1403.00
2023-11-24T06:47:57.348Z,1399.00
2023-11-24T06:48:57.423Z,1373.00
2023-11-24T06:49:57.446Z,1349.00
2023-11-24T06:50:57.467Z,1330.00
2023-11-24T06:51:57.535Z,1322.00
2023-11-24T06:52:57.580Z,1311.00
2023-11-24T06:53:57.604Z,1315.00
2023-11-24T06:54:57.732Z,1351.00
2023-11-24T06:55:57.720Z,1369.00
2023-11-24T06:56:57.763Z,1362.00
2023-11-24T06:57:57.852Z,1360.00
2023-11-24T06:58:57.887Z,1369.00
2023-11-24T06:59:57.926Z,1387.00
2023-11-24T07:00:58.055Z,1371.00
2023-11-24T07:01:58.042Z,1376.00
2023-11-24T07:02:58.225Z,1398.00
2023-11-24T07:03:58.215Z,1421.00
2023-11-24T07:05:29.211Z,1445.00
2023-11-24T07:05:58.198Z,1447.00
2023-11-24T07:06:58.234Z,1458.00
2023-11-24T07:07:58.147Z,1482.00
2023-11-24T07:08:58.167Z,1526.00
2023-11-24T07:09:58.186Z,1562.00
2023-11-24T07:10:58.135Z,1573.00
2023-11-24T07:11:58.144Z,1532.00
2023-11-24T07:12:58.111Z,1536.00
2023-11-24T07:13:58.158Z,1531.00
2023-11-24T07:14:58.114Z,1517.00
2023-11-24T07:16:25.220Z,1505.00
2023-11-24T07:17:25.100Z,1508.00
2023-11-24T07:18:26.643Z,1510.00
2023-11-24T07:18:58.309Z,1511.00
2023-11-24T07:20:32.578Z,1528.00
2023-11-24T07:20:58.037Z,1509.00
2023-11-24T07:21:58.107Z,1529.00
2023-11-24T07:22:58.780Z,1555.00
2023-11-24T07:23:58.022Z,1568.00
2023-11-24T07:24:58.042Z,1575.00
2023-11-24T07:25:58.034Z,1572.00
2023-11-24T07:26:59.038Z,1574.00
2023-11-24T07:28:25.034Z,1560.00
2023-11-24T07:28:58.760Z,1563.00
2023-11-24T07:29:58.995Z,1573.00
2023-11-24T07:30:57.987Z,1581.00
2023-11-24T07:31:57.925Z,1583.00
2023-11-24T07:32:58.052Z,1598.00
2023-11-24T07:33:57.961Z,1582.00
2023-11-24T07:34:57.998Z,1580.00
2023-11-24T07:35:58.559Z,1580.00
2023-11-24T07:36:57.954Z,1565.00
2023-11-24T07:37:58.125Z,1572.00
2023-11-24T07:38:58.374Z,1581.00
2023-11-24T07:39:57.874Z,1570.00
2023-11-24T07:40:57.918Z,1551.00
2023-11-24T07:41:57.973Z,1539.00
2023-11-24T07:42:57.973Z,1501.00
2023-11-24T07:43:57.859Z,1510.00
2023-11-24T07:44:57.830Z,1514.00
2023-11-24T07:45:57.907Z,1551.00
2023-11-24T07:46:57.834Z,1568.00
2023-11-24T07:47:59.785Z,1560.00
2023-11-24T07:48:57.829Z,1568.00
2023-11-24T07:49:57.920Z,1548.00
2023-11-24T07:50:57.787Z,1516.00
2023-11-24T07:51:57.795Z,1514.00
2023-11-24T07:52:59.099Z,1516.00
2023-11-24T07:53:57.744Z,1485.00
2023-11-24T07:54:57.795Z,1474.00
2023-11-24T07:55:57.782Z,1491.00
2023-11-24T07:56:58.801Z,1486.00
2023-11-24T07:57:57.998Z,1480.00
2023-11-24T07:58:57.694Z,1480.00
2023-11-24T07:59:57.703Z,1494.00
2023-11-24T08:00:57.738Z,1480.00
2023-11-24T08:01:57.702Z,1501.00
2023-11-24T08:02:57.701Z,1491.00
2023-11-24T08:03:57.681Z,1486.00
2023-11-24T08:04:57.624Z,1497.00
2023-11-24T08:05:57.630Z,1505.00
2023-11-24T08:06:57.687Z,1511.00
2023-11-24T08:07:57.749Z,1506.00
2023-11-24T08:08:57.745Z,1488.00
2023-11-24T08:09:57.799Z,1491.00
2023-11-24T08:10:57.906Z,1490.00
2023-11-24T08:11:57.942Z,1500.00
2023-11-24T08:12:57.967Z,1484.00
2023-11-24T08:13:58.104Z,1446.00
2023-11-24T08:14:58.069Z,1465.00
2023-11-24T08:15:58.150Z,1509.00
2023-11-24T08:16:58.199Z,1522.00
2023-11-24T08:17:58.337Z,1500.00
2023-11-24T08:18:58.346Z,1481.00
2023-11-24T08:19:58.279Z,1457.00
2023-11-24T08:20:58.368Z,1429.00
2023-11-24T08:21:58.442Z,1389.00
2023-11-24T08:22:58.492Z,1377.00
2023-11-24T08:23:58.482Z,1358.00
2023-11-24T08:24:58.560Z,1349.00
2023-11-24T08:25:58.597Z,1333.00
2023-11-24T08:26:58.650Z,1333.00
2023-11-24T08:27:58.732Z,1318.00
2023-11-24T08:28:58.720Z,1309.00
2023-11-24T08:29:58.845Z,1307.00
2023-11-24T08:30:58.932Z,1306.00
2023-11-24T08:31:58.996Z,1319.00
2023-11-24T08:32:59.009Z,1314.00
2023-11-24T08:33:59.022Z,1317.00
2023-11-24T08:34:59.115Z,1327.00
2023-11-24T08:35:59.122Z,1311.00
2023-11-24T08:36:59.244Z,1313.00
2023-11-24T08:37:59.218Z,1350.00
2023-11-24T08:38:59.232Z,1394.00
2023-11-24T08:39:59.302Z,1404.00
2023-11-24T08:40:59.355Z,1410.00
2023-11-24T08:41:59.440Z,1435.00
2023-11-24T08:42:59.503Z,1461.00
2023-11-24T08:43:59.478Z,1471.00
2023-11-24T08:44:59.553Z,1492.00
2023-11-24T08:45:59.690Z,1511.00
2023-11-24T08:46:59.751Z,1515.00
2023-11-24T08:47:59.746Z,1518.00
2023-11-24T08:48:59.783Z,1525.00
2023-11-24T08:50:00.768Z,1543.00
2023-11-24T08:50:59.790Z,1537.00
2023-11-24T08:51:59.777Z,1555.00
2023-11-24T08:52:59.794Z,1563.00
2023-11-24T08:53:59.801Z,1565.00
2023-11-24T08:54:59.918Z,1566.00
2023-11-24T08:55:59.926Z,1561.00
2023-11-24T08:56:59.994Z,1541.00
2023-11-24T08:58:00.077Z,1546.00
2023-11-24T08:59:00.097Z,1564.00
2023-11-24T09:00:00.129Z,1574.00
2023-11-24T09:01:00.254Z,1582.00
2023-11-24T09:02:00.344Z,1554.00
2023-11-24T09:03:00.348Z,1527.00
2023-11-24T09:04:00.499Z,1501.00
2023-11-24T09:05:00.489Z,1479.00
2023-11-24T09:06:00.419Z,1443.00
2023-11-24T09:07:00.486Z,1418.00
2023-11-24T09:08:00.511Z,1404.00
2023-11-24T09:09:00.570Z,1374.00
2023-11-24T09:10:00.742Z,1364.00
2023-11-24T09:11:00.681Z,1382.00
2023-11-24T09:12:00.719Z,1396.00
2023-11-24T09:13:00.848Z,1406.00
2023-11-24T09:14:00.810Z,1415.00
2023-11-24T09:15:00.874Z,1398.00
2023-11-24T09:16:00.965Z,1392.00
2023-11-24T09:17:00.988Z,1390.00
2023-11-24T09:18:01.087Z,1401.00
2023-11-24T09:19:01.432Z,1409.00
2023-11-24T09:20:01.133Z,1393.00
2023-11-24T09:21:01.166Z,1363.00
2023-11-24T09:22:01.293Z,1350.00
2023-11-24T09:23:01.268Z,1363.00
2023-11-24T09:24:01.572Z,1363.00
2023-11-24T09:25:01.409Z,1375.00
2023-11-24T09:26:01.438Z,1391.00
2023-11-24T09:27:01.623Z,1408.00
2023-11-24T09:28:01.708Z,1421.00
2023-11-24T09:29:01.593Z,1429.00
2023-11-24T09:33:50.404Z,1419.00
2023-11-24T09:34:21.726Z,1433.00
2023-11-24T09:35:21.862Z,1482.00
2023-11-24T09:36:21.068Z,1525.00
2023-11-24T09:37:27.498Z,1553.00
2023-11-24T09:38:20.975Z,1426.00
2023-11-24T09:39:20.907Z,1438.00
2023-11-24T09:40:20.917Z,1449.00
2023-11-24T09:41:20.912Z,1451.00
2023-11-24T09:42:22.510Z,1429.00
2023-11-24T09:43:20.925Z,1415.00
2023-11-24T09:44:20.869Z,1384.00
2023-11-24T09:45:20.964Z,1371.00
2023-11-24T09:46:20.980Z,1370.00
2023-11-24T09:47:20.866Z,1415.00
2023-11-24T09:48:22.033Z,1395.00
2023-11-24T09:49:20.834Z,1396.00
2023-11-24T09:50:20.816Z,1397.00
2023-11-24T09:51:20.839Z,1367.00
2023-11-24T09:52:20.809Z,1339.00
2023-11-24T09:53:20.797Z,1319.00
2023-11-24T09:54:20.914Z,1301.00
2023-11-24T09:55:20.786Z,1307.00
2023-11-24T09:56:20.755Z,1306.00
2023-11-24T09:57:20.764Z,1292.00
2023-11-24T09:58:20.782Z,1279.00
2023-11-24T09:59:20.843Z,1273.00
2023-11-24T10:00:20.854Z,1257.00
2023-11-24T10:01:20.916Z,1255.00
2023-11-24T10:02:21.188Z,1260.00
2023-11-24T10:03:21.022Z,1237.00
2023-11-24T10:04:21.164Z,1234.00
2023-11-24T10:05:21.118Z,1218.00
2023-11-24T10:06:21.146Z,1221.00
2023-11-24T10:07:21.211Z,1232.00
2023-11-24T10:08:21.324Z,1256.00
2023-11-24T10:09:21.338Z,1315.00
2023-11-24T10:10:21.345Z,1338.00
2023-11-24T10:11:21.418Z,1332.00
2023-11-24T10:12:21.452Z,1338.00
2023-11-24T10:13:21.506Z,1330.00
2023-11-24T10:14:21.564Z,1332.00
2023-11-24T10:15:21.709Z,1338.00
2023-11-24T10:16:21.691Z,1339.00
2023-11-24T10:17:21.761Z,1323.00
2023-11-24T10:18:21.774Z,1337.00
2023-11-24T10:19:23.219Z,1344.00
2023-11-24T10:20:21.803Z,1340.00
2023-11-24T10:21:29.921Z,1336.00
2023-11-24T10:22:22.791Z,1331.00
2023-11-24T10:23:21.784Z,1304.00
2023-11-24T10:24:21.750Z,1299.00
2023-11-24T10:25:21.824Z,1309.00
2023-11-24T10:26:21.757Z,1301.00
2023-11-24T10:27:21.750Z,1306.00
2023-11-24T10:28:21.792Z,1331.00
2023-11-24T10:29:21.718Z,1345.00
2023-11-24T10:30:21.711Z,1342.00
2023-11-24T10:31:22.048Z,1355.00
2023-11-24T10:32:21.722Z,1353.00
2023-11-24T10:33:34.944Z,1344.00
2023-11-24T10:34:22.738Z,1345.00
2023-11-24T10:35:21.713Z,1326.00
2023-11-24T10:36:21.648Z,1322.00
2023-11-24T10:37:21.683Z,1332.00
2023-11-24T10:38:21.639Z,1312.00
2023-11-24T10:39:21.647Z,1305.00
2023-11-24T10:40:21.972Z,1290.00
2023-11-24T10:41:21.643Z,1272.00
2023-11-24T10:42:21.650Z,1258.00
2023-11-24T10:43:21.633Z,1259.00
2023-11-24T10:44:21.582Z,1240.00
2023-11-24T10:45:21.598Z,1234.00
2023-11-24T10:46:22.011Z,1229.00
2023-11-24T10:47:21.642Z,1214.00
2023-11-24T10:48:21.584Z,1221.00
2023-11-24T10:49:21.756Z,1222.00
2023-11-24T10:50:21.530Z,1243.00
2023-11-24T10:52:21.750Z,1243.00
2023-11-24T10:53:21.538Z,1245.00
2023-11-24T10:54:21.548Z,1247.00
2023-11-24T10:55:51.341Z,1236.00
2023-11-24T10:57:51.914Z,1242.00
2023-11-24T10:59:01.946Z,1253.00
2023-11-24T10:59:25.777Z,1246.00
2023-11-24T11:00:25.792Z,1276.00
2023-11-24T11:01:25.880Z,1309.00
2023-11-24T11:02:25.774Z,1339.00
2023-11-24T11:03:25.733Z,1356.00
2023-11-24T11:04:25.772Z,1320.00
2023-11-24T11:05:25.710Z,1288.00
2023-11-24T11:06:25.703Z,1288.00
2023-11-24T11:07:25.679Z,1303.00
2023-11-24T11:08:25.663Z,1276.00
2023-11-24T11:09:25.689Z,1257.00
2023-11-24T11:10:25.693Z,1269.00
2023-11-24T11:11:25.640Z,1217.00
2023-11-24T11:12:25.665Z,1196.00
2023-11-24T11:13:25.616Z,1168.00
2023-11-24T11:14:25.611Z,1184.00
2023-11-24T11:15:25.613Z,1191.00
2023-11-24T11:16:25.687Z,1205.00
2023-11-24T11:17:25.587Z,1190.00
2023-11-24T11:18:25.592Z,1150.00
2023-11-24T11:19:25.599Z,1170.00
2023-11-24T11:20:25.552Z,1185.00
2023-11-24T11:21:25.572Z,1121.00
2023-11-24T11:22:25.554Z,1134.00
2023-11-24T11:23:25.542Z,1129.00
2023-11-24T11:24:25.609Z,1146.00
2023-11-24T11:25:25.616Z,1176.00
2023-11-24T11:26:25.510Z,1135.00
2023-11-24T11:27:25.542Z,1135.00
2023-11-24T11:28:25.536Z,1099.00
2023-11-24T11:29:25.468Z,1092.00
2023-11-24T11:30:25.481Z,1064.00
2023-11-24T11:31:26.304Z,1058.00
2023-11-24T11:32:26.991Z,1043.00
2023-11-24T11:33:25.495Z,1036.00
2023-11-24T11:34:25.421Z,1019.00
2023-11-24T11:35:25.463Z,945.00
2023-11-24T11:36:25.422Z,985.00
2023-11-24T11:37:25.473Z,1051.00
2023-11-24T11:38:27.217Z,1106.00
2023-11-24T11:39:25.392Z,1076.00
2023-11-24T11:40:25.446Z,1109.00
2023-11-24T11:41:25.441Z,1129.00
2023-11-24T11:42:25.363Z,1070.00
2023-11-24T11:43:25.399Z,1036.00
2023-11-24T11:44:27.535Z,1010.00
2023-11-24T11:45:25.424Z,1038.00
2023-11-24T11:46:25.479Z,1069.00
2023-11-24T11:47:25.639Z,1073.00
2023-11-24T11:48:25.399Z,1070.00
2023-11-24T11:49:25.411Z,1131.00
2023-11-24T11:50:25.540Z,1117.00
2023-11-24T11:51:25.640Z,1093.00
2023-11-24T11:52:25.977Z,998.00
2023-11-24T11:53:25.601Z,985.00
2023-11-24T11:54:25.578Z,1001.00
2023-11-24T11:55:25.744Z,977.00
2023-11-24T11:56:25.509Z,955.00
2023-11-24T11:57:25.508Z,934.00
2023-11-24T11:58:25.528Z,927.00
2023-11-24T11:59:25.583Z,900.00
2023-11-24T12:00:25.610Z,948.00
2023-11-24T12:01:25.761Z,929.00
2023-11-24T12:02:35.018Z,873.00
2023-11-24T12:24:24.778Z,873.00
2023-11-24T13:15:59.410Z,873.00
2023-11-24T13:16:29.209Z,901.00
2023-11-24T13:17:28.804Z,1062.00
2023-11-24T13:24:24.893Z,873.00
2023-11-24T13:24:50.585Z,890.00
2023-11-24T13:25:50.983Z,1005.00
2023-11-24T13:26:51.206Z,1148.00
2023-11-24T13:27:50.250Z,1299.00
2023-11-24T13:28:51.577Z,1463.00
2023-11-24T13:29:49.930Z,1550.00
2023-11-24T13:30:50.564Z,1433.00